Time;durP1;ratioP1;P1;durP2;ratioP2;P2;SDS_P1;SDS_P2;PMS_P1;PMS_P2;Temp;Humidity;BMP_temperature;BMP_pressure;BME280_temperature;BME280_humidity;BME280_pressure;Samples;Min_cycle;Max_cycle;Signal;HPM_P1;HPM_P2
2024/02/28 00:01:26;;;;;;;3.93;2.00;;;;;;;;;;4983168;28;87579;-56
2024/02/28 00:03:51;;;;;;;3.08;1.90;;;;;;;;;;4985399;28;88364;-54
2024/02/28 00:06:17;;;;;;;5.07;2.20;;;;;;;;;;4978760;28;87104;-55
2024/02/28 00:08:42;;;;;;;4.28;1.98;;;;;;;;;;4980329;28;87319;-52
2024/02/28 00:11:07;;;;;;;3.53;2.13;;;;;;;;;;4977513;28;87382;-53
2024/02/28 00:13:32;;;;;;;3.33;1.90;;;;;;;;;;4980306;28;87762;-55
2024/02/28 00:15:57;;;;;;;4.17;2.20;;;;;;;;;;4981734;28;87510;-55
2024/02/28 00:18:23;;;;;;;3.83;2.10;;;;;;;;;;4983498;28;87200;-53
2024/02/28 00:20:48;;;;;;;3.53;2.22;;;;;;;;;;4980095;28;86545;-55
2024/02/28 00:23:14;;;;;;;2.93;2.20;;;;;;;;;;4980147;28;87306;-56
2024/02/28 00:25:39;;;;;;;3.27;2.07;;;;;;;;;;4986811;28;87380;-51
2024/02/28 00:28:04;;;;;;;5.77;2.20;;;;;;;;;;4981737;28;88102;-56
2024/02/28 00:30:29;;;;;;;5.83;1.97;;;;;;;;;;4988006;28;87677;-53
2024/02/28 00:32:55;;;;;;;4.87;1.93;;;;;;;;;;4979672;28;87012;-56
2024/02/28 00:35:20;;;;;;;4.35;1.95;;;;;;;;;;4981869;28;86964;-54
2024/02/28 00:37:45;;;;;;;4.17;2.10;;;;;;;;;;4979825;28;87801;-55
2024/02/28 00:40:11;;;;;;;3.77;1.97;;;;;;;;;;4978394;28;87108;-52
2024/02/28 00:42:36;;;;;;;4.37;2.10;;;;;;;;;;4982722;28;87055;-54
2024/02/28 00:45:02;;;;;;;4.30;2.00;;;;;;;;;;4984313;28;86732;-55
2024/02/28 00:47:27;;;;;;;4.65;1.92;;;;;;;;;;4985463;28;87045;-55
2024/02/28 00:49:53;;;;;;;4.03;1.77;;;;;;;;;;4978779;28;87231;-56
2024/02/28 00:52:18;;;;;;;3.17;1.90;;;;;;;;;;4977590;28;88684;-55
2024/02/28 00:54:43;;;;;;;3.93;1.97;;;;;;;;;;4978995;28;87021;-55
2024/02/28 00:57:08;;;;;;;4.00;2.03;;;;;;;;;;4985185;27;87676;-55
2024/02/28 00:59:33;;;;;;;3.57;2.20;;;;;;;;;;4981284;28;87081;-54
2024/02/28 01:01:59;;;;;;;2.40;1.73;;;;;;;;;;4988420;28;87657;-55
2024/02/28 01:04:24;;;;;;;6.20;2.10;;;;;;;;;;4977654;28;87290;-55
2024/02/28 01:06:49;;;;;;;4.93;2.00;;;;;;;;;;4982868;28;88379;-55
2024/02/28 01:09:14;;;;;;;4.23;1.90;;;;;;;;;;4984600;28;87521;-55
2024/02/28 01:11:39;;;;;;;6.57;2.07;;;;;;;;;;4984546;28;87528;-54
2024/02/28 01:14:05;;;;;;;2.57;2.03;;;;;;;;;;4978797;28;87492;-52
2024/02/28 01:16:30;;;;;;;3.92;2.05;;;;;;;;;;4984458;28;87861;-55
2024/02/28 01:18:55;;;;;;;3.90;1.88;;;;;;;;;;4981739;28;87125;-53
2024/02/28 01:21:21;;;;;;;4.07;1.90;;;;;;;;;;4987820;28;87541;-53
2024/02/28 01:23:46;;;;;;;4.80;2.00;;;;;;;;;;4981989;28;87638;-56
2024/02/28 01:26:11;;;;;;;2.90;1.87;;;;;;;;;;4978877;28;88654;-55
2024/02/28 01:28:37;;;;;;;3.63;2.10;;;;;;;;;;4980075;28;87430;-55
2024/02/28 01:31:02;;;;;;;4.13;1.90;;;;;;;;;;4983008;28;87190;-55
2024/02/28 01:33:28;;;;;;;3.43;2.30;;;;;;;;;;4979262;28;86330;-55
2024/02/28 01:35:53;;;;;;;4.77;2.10;;;;;;;;;;4979431;28;86944;-54
2024/02/28 01:38:18;;;;;;;2.63;1.87;;;;;;;;;;4976699;28;87016;-55
2024/02/28 01:40:44;;;;;;;3.93;2.37;;;;;;;;;;4975688;28;88028;-56
2024/02/28 01:43:11;;;;;;;2.80;1.60;;;;;;;;;;4977074;28;88272;-56
2024/02/28 01:45:36;;;;;;;4.45;2.38;;;;;;;;;;4979119;28;87875;-54
2024/02/28 01:48:02;;;;;;;4.07;2.23;;;;;;;;;;4983696;28;88982;-56
2024/02/28 01:50:27;;;;;;;3.33;2.00;;;;;;;;;;4986069;28;87550;-53
2024/02/28 01:52:52;;;;;;;2.87;1.80;;;;;;;;;;4977860;28;87041;-54
2024/02/28 01:55:17;;;;;;;4.80;1.90;;;;;;;;;;4986491;28;87556;-54
2024/02/28 01:57:43;;;;;;;3.50;1.90;;;;;;;;;;4982770;28;86451;-54
2024/02/28 02:00:08;;;;;;;3.20;2.03;;;;;;;;;;4978474;28;87112;-53
2024/02/28 02:02:34;;;;;;;5.78;1.90;;;;;;;;;;4978992;28;87258;-55
2024/02/28 02:04:59;;;;;;;3.67;1.90;;;;;;;;;;4973408;28;88585;-54
2024/02/28 02:07:25;;;;;;;3.50;1.87;;;;;;;;;;4979945;28;87289;-54
2024/02/28 02:09:52;;;;;;;3.92;2.08;;;;;;;;;;4987908;28;87384;-55
2024/02/28 02:12:17;;;;;;;3.75;2.20;;;;;;;;;;4984785;28;87750;-51
2024/02/28 02:14:46;;;;;;;3.90;1.70;;;;;;;;;;4977766;28;87065;-56
2024/02/28 02:17:12;;;;;;;3.60;2.10;;;;;;;;;;4982698;28;87555;-54
2024/02/28 02:19:38;;;;;;;4.25;1.85;;;;;;;;;;4977102;28;88206;-55
2024/02/28 02:22:05;;;;;;;3.27;1.97;;;;;;;;;;4975955;28;86864;-54
2024/02/28 02:24:30;;;;;;;2.75;2.22;;;;;;;;;;4980444;28;87024;-55
2024/02/28 02:26:57;;;;;;;2.70;1.60;;;;;;;;;;4985679;28;87216;-53
2024/02/28 02:29:22;;;;;;;3.45;1.95;;;;;;;;;;4979797;28;88016;-53
2024/02/28 02:31:47;;;;;;;6.10;2.40;;;;;;;;;;4977205;28;87643;-55
2024/02/28 02:34:13;;;;;;;3.47;2.00;;;;;;;;;;4978309;28;87489;-53
2024/02/28 02:36:38;;;;;;;3.70;2.00;;;;;;;;;;4979055;28;87232;-54
2024/02/28 02:39:03;;;;;;;4.00;2.20;;;;;;;;;;4980765;28;87019;-55
2024/02/28 02:41:28;;;;;;;3.00;1.80;;;;;;;;;;4985975;28;87517;-54
2024/02/28 02:43:54;;;;;;;3.37;2.07;;;;;;;;;;4979961;28;87041;-53
2024/02/28 02:46:19;;;;;;;4.90;2.20;;;;;;;;;;4986108;28;86554;-54
2024/02/28 02:48:44;;;;;;;2.50;1.77;;;;;;;;;;4983622;28;87225;-56
2024/02/28 02:51:10;;;;;;;3.73;2.00;;;;;;;;;;4985678;28;88806;-53
2024/02/28 02:53:35;;;;;;;8.37;2.27;;;;;;;;;;4985424;28;88169;-55
2024/02/28 02:56:03;;;;;;;5.07;2.20;;;;;;;;;;4985544;28;88466;-53
2024/02/28 02:58:28;;;;;;;3.30;2.40;;;;;;;;;;4977158;28;87187;-56
2024/02/28 03:00:53;;;;;;;4.47;2.30;;;;;;;;;;4977731;28;88387;-56
2024/02/28 03:03:18;;;;;;;3.10;1.80;;;;;;;;;;4984929;28;88279;-53
2024/02/28 03:05:44;;;;;;;4.30;2.00;;;;;;;;;;4985656;28;87190;-55
2024/02/28 03:08:09;;;;;;;4.37;2.17;;;;;;;;;;4983120;28;87521;-56
2024/02/28 03:10:34;;;;;;;2.63;1.83;;;;;;;;;;4982254;28;86784;-55
2024/02/28 03:13:00;;;;;;;3.00;1.67;;;;;;;;;;4979273;28;87286;-55
2024/02/28 03:15:25;;;;;;;2.75;2.17;;;;;;;;;;4982284;28;87305;-55
2024/02/28 03:17:51;;;;;;;5.00;2.30;;;;;;;;;;4988976;28;89567;-55
2024/02/28 03:20:16;;;;;;;5.30;2.07;;;;;;;;;;4982969;28;87414;-55
2024/02/28 03:22:41;;;;;;;3.00;2.20;;;;;;;;;;4984526;28;87823;-54
2024/02/28 03:25:07;;;;;;;2.33;1.80;;;;;;;;;;4980003;28;87504;-55
2024/02/28 03:27:32;;;;;;;4.27;2.17;;;;;;;;;;4981449;28;88588;-56
2024/02/28 03:29:57;;;;;;;3.83;1.90;;;;;;;;;;4981109;28;86852;-54
2024/02/28 03:32:22;;;;;;;4.23;2.23;;;;;;;;;;4977920;28;87522;-54
2024/02/28 03:34:48;;;;;;;3.67;1.80;;;;;;;;;;4982832;28;87259;-53
2024/02/28 03:37:14;;;;;;;3.75;1.88;;;;;;;;;;4985874;28;87390;-54
2024/02/28 03:39:39;;;;;;;2.77;1.83;;;;;;;;;;4985104;28;87049;-54
2024/02/28 03:42:04;;;;;;;3.47;1.98;;;;;;;;;;4981926;28;88658;-56
2024/02/28 03:44:29;;;;;;;2.97;1.90;;;;;;;;;;4978942;28;87139;-53
2024/02/28 03:46:54;;;;;;;4.20;2.10;;;;;;;;;;4978322;28;88345;-56
2024/02/28 03:49:20;;;;;;;3.07;1.80;;;;;;;;;;4983699;28;88661;-53
2024/02/28 03:51:45;;;;;;;3.67;1.90;;;;;;;;;;4981936;28;87433;-55
2024/02/28 03:54:10;;;;;;;3.53;2.33;;;;;;;;;;4985701;28;87085;-56
2024/02/28 03:56:35;;;;;;;3.40;1.70;;;;;;;;;;4981572;28;88212;-55
2024/02/28 03:59:01;;;;;;;4.10;2.03;;;;;;;;;;4990494;28;86613;-53
2024/02/28 04:01:26;;;;;;;2.73;1.77;;;;;;;;;;4976987;28;87767;-55
2024/02/28 04:03:51;;;;;;;3.47;1.90;;;;;;;;;;4982502;28;87618;-55
2024/02/28 04:06:16;;;;;;;3.50;1.93;;;;;;;;;;4979461;28;88902;-54
2024/02/28 04:08:42;;;;;;;3.13;1.80;;;;;;;;;;4983653;28;87158;-54
2024/02/28 04:11:07;;;;;;;2.93;1.97;;;;;;;;;;4979291;28;87423;-55
2024/02/28 04:13:32;;;;;;;3.53;1.90;;;;;;;;;;4974765;28;87831;-55
2024/02/28 04:15:57;;;;;;;4.27;2.27;;;;;;;;;;4982162;28;86946;-54
2024/02/28 04:18:23;;;;;;;3.57;1.70;;;;;;;;;;4974602;28;87557;-54
2024/02/28 04:20:48;;;;;;;2.37;2.00;;;;;;;;;;4980969;28;87587;-55
2024/02/28 04:23:13;;;;;;;3.03;2.00;;;;;;;;;;4979856;28;86697;-52
2024/02/28 04:25:40;;;;;;;2.53;1.83;;;;;;;;;;4982168;28;87224;-55
2024/02/28 04:28:05;;;;;;;3.03;2.00;;;;;;;;;;4977784;28;87662;-56
2024/02/28 04:30:30;;;;;;;2.40;1.90;;;;;;;;;;4980308;28;88845;-56
2024/02/28 04:32:56;;;;;;;3.13;1.80;;;;;;;;;;4976209;28;88171;-55
2024/02/28 04:35:21;;;;;;;3.10;1.90;;;;;;;;;;4983324;28;87158;-56
2024/02/28 04:37:46;;;;;;;3.63;2.07;;;;;;;;;;4980638;28;86935;-56
2024/02/28 04:40:12;;;;;;;3.93;1.90;;;;;;;;;;4982307;28;87402;-53
2024/02/28 04:42:37;;;;;;;3.60;2.17;;;;;;;;;;4980241;28;87489;-54
2024/02/28 04:45:03;;;;;;;2.63;1.88;;;;;;;;;;4986509;28;87504;-55
2024/02/28 04:47:28;;;;;;;4.93;2.30;;;;;;;;;;4983274;28;86255;-55
2024/02/28 04:49:54;;;;;;;4.83;2.50;;;;;;;;;;4981744;28;87269;-56
2024/02/28 04:52:19;;;;;;;2.97;1.90;;;;;;;;;;4980258;28;87110;-56
2024/02/28 04:54:45;;;;;;;3.63;1.97;;;;;;;;;;4980864;28;88888;-55
2024/02/28 04:57:11;;;;;;;3.90;2.07;;;;;;;;;;4982794;28;87052;-52
2024/02/28 04:59:36;;;;;;;2.70;1.98;;;;;;;;;;4978427;28;87540;-55
2024/02/28 05:02:02;;;;;;;4.43;1.87;;;;;;;;;;4983790;28;88460;-53
2024/02/28 05:04:27;;;;;;;3.77;1.87;;;;;;;;;;4986258;28;87031;-55
2024/02/28 05:06:52;;;;;;;3.67;1.97;;;;;;;;;;4982637;28;88054;-54
2024/02/28 05:09:18;;;;;;;3.00;2.10;;;;;;;;;;4978139;28;87651;-54
2024/02/28 05:11:44;;;;;;;3.07;1.87;;;;;;;;;;4980477;28;88958;-56
2024/02/28 05:14:10;;;;;;;2.70;1.90;;;;;;;;;;4978979;28;86858;-54
2024/02/28 05:16:35;;;;;;;3.95;1.80;;;;;;;;;;4980778;28;87311;-54
2024/02/28 05:19:00;;;;;;;2.93;1.90;;;;;;;;;;4978788;28;88513;-55
2024/02/28 05:21:25;;;;;;;2.80;2.00;;;;;;;;;;4983601;28;87554;-52
2024/02/28 05:23:51;;;;;;;2.70;1.97;;;;;;;;;;4979697;28;87287;-55
2024/02/28 05:26:16;;;;;;;4.33;1.90;;;;;;;;;;4979968;28;86785;-56
2024/02/28 05:28:41;;;;;;;5.43;2.43;;;;;;;;;;4979683;28;86950;-55
2024/02/28 05:31:22;;;;;;;2.97;1.70;;;;;;;;;;4978598;28;87386;-55
2024/02/28 05:33:48;;;;;;;3.42;2.17;;;;;;;;;;4984787;28;87485;-53
2024/02/28 05:36:13;;;;;;;3.87;2.50;;;;;;;;;;4977628;28;87203;-56
2024/02/28 05:38:38;;;;;;;3.50;2.00;;;;;;;;;;4982003;28;87527;-55
2024/02/28 05:41:03;;;;;;;5.07;1.90;;;;;;;;;;4979844;28;88466;-55
2024/02/28 05:43:29;;;;;;;3.20;1.90;;;;;;;;;;4981213;28;87873;-55
2024/02/28 05:45:54;;;;;;;5.63;1.80;;;;;;;;;;4981058;28;88304;-52
2024/02/28 05:48:19;;;;;;;4.70;2.37;;;;;;;;;;4979413;28;87430;-52
2024/02/28 05:50:45;;;;;;;3.53;1.80;;;;;;;;;;4983905;28;87009;-54
2024/02/28 05:53:10;;;;;;;4.73;2.20;;;;;;;;;;4981729;28;87323;-56
2024/02/28 05:55:35;;;;;;;4.37;2.20;;;;;;;;;;4968491;28;87338;-56
2024/02/28 05:58:01;;;;;;;4.60;2.07;;;;;;;;;;4980535;28;89226;-54
2024/02/28 06:00:27;;;;;;;3.08;1.80;;;;;;;;;;4977244;28;87097;-53
2024/02/28 06:02:53;;;;;;;2.10;1.63;;;;;;;;;;4982039;28;87489;-55
2024/02/28 06:05:18;;;;;;;3.43;2.10;;;;;;;;;;4980288;28;87183;-55
2024/02/28 06:07:44;;;;;;;6.27;2.37;;;;;;;;;;4983605;28;88328;-56
2024/02/28 06:10:10;;;;;;;5.17;2.47;;;;;;;;;;4987798;28;90016;-55
2024/02/28 06:12:35;;;;;;;4.38;2.40;;;;;;;;;;4975210;28;87785;-54
2024/02/28 06:15:00;;;;;;;4.28;2.47;;;;;;;;;;4985962;28;88406;-56
2024/02/28 06:17:26;;;;;;;4.97;2.30;;;;;;;;;;4978620;28;87420;-57
2024/02/28 06:19:51;;;;;;;4.97;2.40;;;;;;;;;;4976466;28;87217;-52
2024/02/28 06:22:18;;;;;;;5.70;2.50;;;;;;;;;;4977600;28;87042;-54
2024/02/28 06:24:44;;;;;;;5.10;2.70;;;;;;;;;;4986906;28;86737;-54
2024/02/28 06:27:12;;;;;;;4.77;2.97;;;;;;;;;;4978663;28;88502;-55
2024/02/28 06:29:37;;;;;;;4.57;2.80;;;;;;;;;;4982406;28;87442;-52
2024/02/28 06:32:03;;;;;;;7.50;2.40;;;;;;;;;;4981685;28;88422;-55
2024/02/28 06:34:29;;;;;;;5.05;2.63;;;;;;;;;;4979971;28;87162;-56
2024/02/28 06:36:54;;;;;;;5.27;2.70;;;;;;;;;;4978600;28;87324;-52
2024/02/28 06:39:19;;;;;;;6.17;2.73;;;;;;;;;;4976000;28;86872;-54
2024/02/28 06:41:44;;;;;;;11.37;3.20;;;;;;;;;;4972626;28;87077;-56
2024/02/28 06:44:11;;;;;;;9.63;3.13;;;;;;;;;;4979008;28;88345;-51
2024/02/28 06:46:36;;;;;;;5.80;3.40;;;;;;;;;;4997481;28;87784;-55
2024/02/28 06:49:01;;;;;;;5.83;3.70;;;;;;;;;;4977582;28;86463;-53
2024/02/28 06:51:27;;;;;;;5.27;3.03;;;;;;;;;;4986290;28;87011;-54
2024/02/28 06:53:52;;;;;;;6.27;3.30;;;;;;;;;;4981291;28;87208;-53
2024/02/28 06:56:17;;;;;;;8.17;2.77;;;;;;;;;;4983919;28;87923;-55
2024/02/28 06:58:42;;;;;;;9.73;3.40;;;;;;;;;;4976818;28;87494;-55
2024/02/28 07:01:07;;;;;;;7.50;3.30;;;;;;;;;;4981816;28;88348;-51
2024/02/28 07:03:33;;;;;;;7.57;3.57;;;;;;;;;;4985022;28;87175;-56
2024/02/28 07:05:58;;;;;;;13.10;4.60;;;;;;;;;;4979238;28;88058;-52
2024/02/28 07:08:23;;;;;;;11.85;3.58;;;;;;;;;;4973580;28;87745;-55
2024/02/28 07:10:53;;;;;;;7.07;3.10;;;;;;;;;;4979124;28;87233;-58
2024/02/28 07:13:18;;;;;;;26.30;10.50;;;;;;;;;;4983376;28;86980;-58
2024/02/28 07:15:43;;;;;;;20.03;8.20;;;;;;;;;;4981405;28;86902;-53
2024/02/28 07:18:09;;;;;;;17.77;7.37;;;;;;;;;;4981517;28;87718;-53
2024/02/28 07:20:34;;;;;;;13.80;6.27;;;;;;;;;;4979114;28;90490;-55
2024/02/28 07:22:59;;;;;;;10.37;5.43;;;;;;;;;;4977075;28;89107;-53
2024/02/28 07:25:25;;;;;;;12.90;5.90;;;;;;;;;;4981830;28;87840;-54
2024/02/28 07:27:50;;;;;;;10.67;5.13;;;;;;;;;;4990005;28;88600;-56
2024/02/28 07:30:15;;;;;;;12.27;4.70;;;;;;;;;;4981540;28;86999;-54
2024/02/28 07:32:41;;;;;;;9.27;4.83;;;;;;;;;;4986953;28;87221;-53
2024/02/28 07:35:06;;;;;;;8.25;4.57;;;;;;;;;;4982957;28;87805;-56
2024/02/28 07:37:31;;;;;;;9.65;4.10;;;;;;;;;;4985087;28;87030;-56
2024/02/28 07:39:57;;;;;;;14.82;5.43;;;;;;;;;;4975303;28;87479;-55
2024/02/28 07:42:22;;;;;;;11.00;5.23;;;;;;;;;;4985984;28;87589;-55
2024/02/28 07:44:47;;;;;;;7.50;4.80;;;;;;;;;;4980550;28;89333;-55
2024/02/28 07:47:14;;;;;;;8.87;4.73;;;;;;;;;;4982055;28;87084;-52
2024/02/28 07:49:39;;;;;;;8.87;4.50;;;;;;;;;;4979718;28;86925;-53
2024/02/28 07:52:05;;;;;;;7.90;4.10;;;;;;;;;;4978783;28;88062;-56
2024/02/28 07:54:30;;;;;;;12.57;4.10;;;;;;;;;;4982913;28;87113;-56
2024/02/28 07:56:55;;;;;;;9.17;3.83;;;;;;;;;;4983597;28;87379;-57
2024/02/28 07:59:20;;;;;;;8.53;4.20;;;;;;;;;;4980991;28;88009;-56
2024/02/28 08:01:45;;;;;;;14.30;4.50;;;;;;;;;;4978654;28;87545;-55
2024/02/28 08:04:11;;;;;;;9.17;4.17;;;;;;;;;;4979500;28;87213;-56
2024/02/28 08:06:36;;;;;;;9.53;4.17;;;;;;;;;;4980703;28;87407;-55
2024/02/28 08:09:04;;;;;;;11.73;3.90;;;;;;;;;;4983498;28;87823;-52
2024/02/28 08:11:29;;;;;;;11.17;3.63;;;;;;;;;;4979064;28;89069;-55
2024/02/28 08:13:54;;;;;;;10.43;3.77;;;;;;;;;;4981180;28;89204;-56
2024/02/28 08:16:19;;;;;;;7.43;3.73;;;;;;;;;;4985182;28;87350;-53
2024/02/28 08:18:45;;;;;;;8.20;3.93;;;;;;;;;;4982301;28;86947;-57
2024/02/28 08:21:10;;;;;;;6.33;3.17;;;;;;;;;;4976676;28;87172;-54
2024/02/28 08:23:35;;;;;;;6.27;3.60;;;;;;;;;;4978117;28;87688;-55
2024/02/28 08:26:00;;;;;;;6.63;3.20;;;;;;;;;;4995037;28;86922;-56
2024/02/28 08:28:26;;;;;;;7.27;3.60;;;;;;;;;;4982724;28;87268;-56
2024/02/28 08:30:51;;;;;;;6.07;3.40;;;;;;;;;;4974569;28;88007;-55
2024/02/28 08:33:16;;;;;;;8.33;3.50;;;;;;;;;;4978094;28;88467;-55
2024/02/28 08:35:42;;;;;;;5.77;3.70;;;;;;;;;;4977583;28;88062;-54
2024/02/28 08:38:08;;;;;;;8.47;3.57;;;;;;;;;;4986328;28;87526;-56
2024/02/28 08:40:33;;;;;;;17.10;3.33;;;;;;;;;;4976974;28;87515;-53
2024/02/28 08:42:58;;;;;;;6.83;3.33;;;;;;;;;;4994150;28;87282;-55
2024/02/28 08:45:23;;;;;;;8.83;3.27;;;;;;;;;;4979377;28;86948;-54
2024/02/28 08:47:49;;;;;;;11.50;3.97;;;;;;;;;;4982088;28;87558;-54
2024/02/28 08:50:14;;;;;;;8.33;3.03;;;;;;;;;;4981147;28;87359;-56
2024/02/28 08:52:39;;;;;;;10.40;3.35;;;;;;;;;;4984694;28;87042;-57
2024/02/28 08:55:05;;;;;;;4.47;3.03;;;;;;;;;;4981733;28;87073;-56
2024/02/28 08:57:30;;;;;;;5.93;3.10;;;;;;;;;;4977780;28;88640;-53
2024/02/28 08:59:55;;;;;;;7.43;3.30;;;;;;;;;;4980364;28;88062;-54
2024/02/28 09:02:21;;;;;;;5.87;3.27;;;;;;;;;;4980872;28;87763;-55
2024/02/28 09:04:50;;;;;;;6.53;2.77;;;;;;;;;;4976983;28;87144;-55
2024/02/28 09:07:19;;;;;;;9.93;3.50;;;;;;;;;;4984987;28;87490;-56
2024/02/28 09:09:44;;;;;;;5.32;2.83;;;;;;;;;;4979811;28;87944;-56
2024/02/28 09:12:09;;;;;;;6.63;3.53;;;;;;;;;;4982882;28;87354;-56
2024/02/28 09:14:35;;;;;;;6.50;3.53;;;;;;;;;;4987765;28;87545;-53
2024/02/28 09:17:03;;;;;;;7.50;3.17;;;;;;;;;;4978959;28;87026;-54
2024/02/28 09:19:28;;;;;;;7.70;3.10;;;;;;;;;;4983518;28;87356;-53
2024/02/28 09:21:53;;;;;;;7.82;3.05;;;;;;;;;;4981027;28;87871;-56
2024/02/28 09:24:19;;;;;;;8.17;3.67;;;;;;;;;;4982103;28;87338;-54
2024/02/28 09:26:44;;;;;;;11.33;3.13;;;;;;;;;;4978827;28;87229;-53
2024/02/28 09:29:09;;;;;;;4.93;3.17;;;;;;;;;;4980311;28;87544;-56
2024/02/28 09:31:34;;;;;;;5.73;2.80;;;;;;;;;;4982311;28;87377;-56
2024/02/28 09:34:02;;;;;;;7.40;3.53;;;;;;;;;;4983716;28;89229;-53
2024/02/28 09:36:28;;;;;;;8.73;2.80;;;;;;;;;;4978325;28;87742;-56
2024/02/28 09:38:53;;;;;;;7.90;2.80;;;;;;;;;;4975532;28;86261;-56
2024/02/28 09:41:19;;;;;;;8.67;3.20;;;;;;;;;;4977377;28;87922;-56
2024/02/28 09:43:44;;;;;;;9.32;3.58;;;;;;;;;;4978880;28;88157;-55
2024/02/28 09:46:11;;;;;;;5.57;3.10;;;;;;;;;;4976620;28;89843;-57
2024/02/28 09:48:38;;;;;;;7.00;3.17;;;;;;;;;;4976749;28;87730;-57
2024/02/28 09:51:04;;;;;;;12.68;3.60;;;;;;;;;;4978731;28;87491;-56
2024/02/28 09:53:29;;;;;;;7.00;3.43;;;;;;;;;;4980278;28;88388;-58
2024/02/28 09:55:54;;;;;;;9.73;3.13;;;;;;;;;;4980179;28;87546;-56
2024/02/28 09:58:21;;;;;;;7.00;3.10;;;;;;;;;;4984609;28;87247;-56
2024/02/28 10:00:46;;;;;;;9.98;2.97;;;;;;;;;;4980754;28;87836;-53
2024/02/28 10:03:13;;;;;;;10.33;3.70;;;;;;;;;;4985255;28;86887;-56
2024/02/28 10:05:39;;;;;;;6.13;3.08;;;;;;;;;;4975930;28;86933;-54
2024/02/28 10:08:05;;;;;;;9.80;3.67;;;;;;;;;;4981269;28;87582;-56
2024/02/28 10:10:30;;;;;;;8.17;3.23;;;;;;;;;;4984106;28;88364;-56
2024/02/28 10:12:56;;;;;;;9.30;3.63;;;;;;;;;;4977979;28;87197;-55
2024/02/28 10:15:22;;;;;;;6.30;3.33;;;;;;;;;;4984519;28;87321;-56
2024/02/28 10:17:48;;;;;;;7.15;2.90;;;;;;;;;;4980494;28;87103;-56
2024/02/28 10:20:13;;;;;;;11.73;3.80;;;;;;;;;;4983365;28;87675;-55
2024/02/28 10:22:39;;;;;;;5.83;3.03;;;;;;;;;;4980849;28;87561;-53
2024/02/28 10:25:04;;;;;;;11.10;3.60;;;;;;;;;;4982871;28;87014;-57
2024/02/28 10:27:33;;;;;;;11.23;3.80;;;;;;;;;;4978238;28;86625;-56
2024/02/28 10:29:58;;;;;;;8.00;3.25;;;;;;;;;;4979523;28;87541;-60
2024/02/28 10:32:24;;;;;;;9.77;3.67;;;;;;;;;;4977483;28;87793;-55
2024/02/28 10:34:49;;;;;;;15.60;5.23;;;;;;;;;;4978685;28;87677;-55
2024/02/28 10:37:14;;;;;;;13.77;5.40;;;;;;;;;;4982703;28;86921;-55
2024/02/28 10:39:40;;;;;;;14.52;4.93;;;;;;;;;;4976469;28;87385;-55
2024/02/28 10:42:06;;;;;;;12.07;5.10;;;;;;;;;;4977211;28;87606;-56
2024/02/28 10:44:33;;;;;;;11.50;4.67;;;;;;;;;;4977042;28;87050;-56
2024/02/28 10:46:59;;;;;;;13.45;4.85;;;;;;;;;;4978888;28;87258;-57
2024/02/28 10:49:24;;;;;;;10.73;4.80;;;;;;;;;;4982301;28;86893;-56
2024/02/28 10:51:51;;;;;;;34.03;6.60;;;;;;;;;;4977418;28;87572;-56
2024/02/28 10:54:20;;;;;;;17.70;5.23;;;;;;;;;;4984200;28;87595;-55
2024/02/28 10:56:45;;;;;;;13.83;5.27;;;;;;;;;;4977047;28;88258;-56
2024/02/28 10:59:12;;;;;;;12.00;5.07;;;;;;;;;;4984863;28;90393;-55
2024/02/28 11:01:38;;;;;;;14.53;5.37;;;;;;;;;;4982372;28;87064;-55
2024/02/28 11:04:04;;;;;;;11.80;5.20;;;;;;;;;;4987181;28;87016;-53
2024/02/28 11:06:29;;;;;;;15.67;5.10;;;;;;;;;;4986834;28;86993;-56
2024/02/28 11:08:56;;;;;;;12.93;4.53;;;;;;;;;;4986255;28;87632;-55
2024/02/28 11:11:21;;;;;;;9.43;4.80;;;;;;;;;;4984943;28;88139;-54
2024/02/28 11:13:54;;;;;;;15.07;5.30;;;;;;;;;;4983073;28;87173;-59
2024/02/28 11:16:25;;;;;;;14.98;5.70;;;;;;;;;;4985984;28;86594;-56
2024/02/28 11:18:50;;;;;;;19.27;7.70;;;;;;;;;;4983947;28;87308;-56
2024/02/28 11:21:16;;;;;;;68.67;30.97;;;;;;;;;;4984900;28;87336;-55
2024/02/28 11:23:46;;;;;;;107.25;51.33;;;;;;;;;;4980422;28;88717;-56
2024/02/28 11:26:11;;;;;;;164.33;73.87;;;;;;;;;;4988128;28;88404;-55
2024/02/28 11:28:37;;;;;;;178.20;80.77;;;;;;;;;;4982342;28;87604;-54
2024/02/28 11:31:02;;;;;;;201.43;90.87;;;;;;;;;;4985233;28;87666;-56
2024/02/28 11:33:27;;;;;;;182.73;83.77;;;;;;;;;;4979472;28;87971;-56
2024/02/28 11:35:59;;;;;;;158.60;77.35;;;;;;;;;;4982879;28;87312;-56
2024/02/28 11:38:27;;;;;;;144.07;67.43;;;;;;;;;;4974293;28;87009;-53
2024/02/28 11:40:52;;;;;;;135.32;62.90;;;;;;;;;;4983900;28;86748;-54
2024/02/28 11:43:18;;;;;;;125.47;57.70;;;;;;;;;;4988451;28;86993;-56
2024/02/28 11:45:43;;;;;;;113.10;51.77;;;;;;;;;;4986444;28;87443;-56
2024/02/28 11:48:08;;;;;;;100.87;44.40;;;;;;;;;;4983615;28;88419;-56
2024/02/28 11:50:34;;;;;;;93.23;43.07;;;;;;;;;;4982671;28;88118;-55
2024/02/28 11:53:01;;;;;;;94.17;40.50;;;;;;;;;;4986154;28;88422;-54
2024/02/28 11:55:27;;;;;;;83.80;38.70;;;;;;;;;;4981143;28;87430;-55
2024/02/28 11:57:52;;;;;;;72.60;35.63;;;;;;;;;;4988333;28;87519;-55
2024/02/28 12:00:17;;;;;;;75.20;34.97;;;;;;;;;;4979092;28;88317;-55
2024/02/28 12:02:43;;;;;;;72.38;31.15;;;;;;;;;;4987435;28;86892;-56
2024/02/28 12:05:09;;;;;;;61.28;29.02;;;;;;;;;;4980829;28;87585;-56
2024/02/28 12:07:34;;;;;;;64.82;30.10;;;;;;;;;;4979914;28;87008;-54
2024/02/28 12:10:00;;;;;;;54.83;25.20;;;;;;;;;;4982189;28;87255;-52
2024/02/28 12:12:26;;;;;;;50.50;25.07;;;;;;;;;;4983354;28;87909;-56
2024/02/28 12:14:52;;;;;;;49.73;22.30;;;;;;;;;;4981978;28;87457;-56
2024/02/28 12:17:17;;;;;;;39.35;19.25;;;;;;;;;;4982621;28;87513;-53
2024/02/28 12:19:43;;;;;;;29.73;13.30;;;;;;;;;;4980232;28;87158;-53
2024/02/28 12:22:08;;;;;;;23.90;10.50;;;;;;;;;;4983020;28;87177;-53
2024/02/28 12:24:33;;;;;;;23.83;9.20;;;;;;;;;;4979503;28;87225;-56
2024/02/28 12:26:59;;;;;;;19.97;8.40;;;;;;;;;;4976274;28;87783;-56
2024/02/28 12:29:24;;;;;;;18.03;7.30;;;;;;;;;;4983387;28;86813;-55
2024/02/28 12:31:49;;;;;;;16.67;7.03;;;;;;;;;;4984319;28;87726;-55
2024/02/28 12:34:17;;;;;;;14.87;6.30;;;;;;;;;;4980292;28;87005;-55
2024/02/28 12:36:42;;;;;;;13.60;6.25;;;;;;;;;;4982762;28;88012;-57
2024/02/28 12:39:11;;;;;;;11.53;5.37;;;;;;;;;;4977246;28;89112;-57
2024/02/28 12:41:37;;;;;;;12.57;5.47;;;;;;;;;;4980786;28;87343;-56
2024/02/28 12:44:03;;;;;;;12.45;5.35;;;;;;;;;;4982198;28;87274;-56
2024/02/28 12:46:28;;;;;;;14.03;5.13;;;;;;;;;;4980132;28;87574;-52
2024/02/28 12:48:53;;;;;;;11.10;5.27;;;;;;;;;;4977411;28;87179;-57
2024/02/28 12:51:38;;;;;;;8.17;4.37;;;;;;;;;;4983457;28;88512;-55
2024/02/28 12:54:04;;;;;;;9.15;4.68;;;;;;;;;;4984853;28;87376;-55
2024/02/28 12:56:29;;;;;;;8.38;4.75;;;;;;;;;;4982482;28;87945;-56
2024/02/28 12:58:54;;;;;;;9.47;4.53;;;;;;;;;;4981769;28;87541;-56
2024/02/28 13:01:19;;;;;;;10.93;4.33;;;;;;;;;;4978165;28;88052;-56
2024/02/28 13:03:45;;;;;;;8.07;4.77;;;;;;;;;;4979431;28;87578;-56
2024/02/28 13:06:10;;;;;;;8.15;4.25;;;;;;;;;;4996302;28;87634;-54
2024/02/28 13:08:35;;;;;;;11.83;4.17;;;;;;;;;;4983226;28;88216;-57
2024/02/28 13:11:01;;;;;;;11.50;4.17;;;;;;;;;;4977353;28;87067;-54
2024/02/28 13:13:26;;;;;;;7.53;4.20;;;;;;;;;;4982234;28;87503;-55
2024/02/28 13:15:51;;;;;;;7.40;3.90;;;;;;;;;;4978675;28;87190;-62
2024/02/28 13:18:16;;;;;;;11.13;4.30;;;;;;;;;;4986360;28;87582;-57
2024/02/28 13:20:42;;;;;;;8.07;4.00;;;;;;;;;;4977957;28;87155;-56
2024/02/28 13:23:07;;;;;;;8.07;3.87;;;;;;;;;;4985443;28;87879;-57
2024/02/28 13:25:32;;;;;;;7.47;3.93;;;;;;;;;;4975698;28;88806;-55
2024/02/28 13:27:57;;;;;;;8.57;4.50;;;;;;;;;;4982154;28;87656;-56
2024/02/28 13:30:23;;;;;;;6.63;3.67;;;;;;;;;;4985849;28;87483;-54
2024/02/28 13:32:48;;;;;;;5.77;3.37;;;;;;;;;;4978672;28;88389;-56
2024/02/28 13:35:13;;;;;;;7.47;4.07;;;;;;;;;;4976875;28;87338;-53
2024/02/28 13:37:40;;;;;;;7.93;3.63;;;;;;;;;;4979980;28;87561;-56
2024/02/28 13:40:06;;;;;;;6.47;3.55;;;;;;;;;;4983815;28;87274;-56
2024/02/28 13:42:31;;;;;;;6.40;3.35;;;;;;;;;;4976513;28;87032;-54
2024/02/28 13:44:56;;;;;;;7.18;3.33;;;;;;;;;;4977670;28;87547;-55
2024/02/28 13:47:23;;;;;;;8.13;3.43;;;;;;;;;;4982139;28;87039;-56
2024/02/28 13:49:49;;;;;;;6.80;3.20;;;;;;;;;;4975699;28;87963;-55
2024/02/28 13:52:15;;;;;;;7.40;3.30;;;;;;;;;;4980100;28;87515;-55
2024/02/28 13:54:40;;;;;;;6.70;3.33;;;;;;;;;;4983863;28;88353;-57
2024/02/28 13:57:05;;;;;;;5.73;3.20;;;;;;;;;;4981649;28;87164;-54
2024/02/28 13:59:31;;;;;;;6.50;3.33;;;;;;;;;;4978786;28;89400;-56
2024/02/28 14:01:56;;;;;;;6.47;3.30;;;;;;;;;;4981052;28;87639;-57
2024/02/28 14:04:21;;;;;;;7.27;3.13;;;;;;;;;;4983854;28;88546;-56
2024/02/28 14:06:47;;;;;;;5.47;3.10;;;;;;;;;;4974567;28;86807;-56
2024/02/28 14:09:12;;;;;;;6.30;3.10;;;;;;;;;;4975464;28;87527;-57
2024/02/28 14:11:37;;;;;;;7.20;3.27;;;;;;;;;;4979521;28;88542;-53
2024/02/28 14:14:02;;;;;;;5.50;3.50;;;;;;;;;;4977562;28;88264;-56
2024/02/28 14:16:29;;;;;;;6.17;2.93;;;;;;;;;;4978946;28;88288;-57
2024/02/28 14:18:54;;;;;;;6.78;3.03;;;;;;;;;;4983294;28;87356;-55
2024/02/28 14:21:20;;;;;;;6.40;2.80;;;;;;;;;;4983368;28;87211;-57
2024/02/28 14:23:45;;;;;;;6.77;2.70;;;;;;;;;;4979058;28;88083;-57
2024/02/28 14:26:11;;;;;;;5.47;3.28;;;;;;;;;;4980861;28;88431;-56
2024/02/28 14:28:36;;;;;;;4.60;2.80;;;;;;;;;;4982792;28;87511;-57